sensor_id;sensor_type;location;lat;lon;timestamp;temperature;humidity
22771;DHT22;11552;50.786;4.332;2022-07-22T00:00:05;17.80;99.90
22771;DHT22;11552;50.786;4.332;2022-07-22T00:02:31;17.70;99.90
22771;DHT22;11552;50.786;4.332;2022-07-22T00:04:57;17.70;99.90
22771;DHT22;11552;50.786;4.332;2022-07-22T00:07:23;17.70;99.90
22771;DHT22;11552;50.786;4.332;2022-07-22T00:09:49;17.60;99.90
22771;DHT22;11552;50.786;4.332;2022-07-22T00:12:14;17.60;99.90
22771;DHT22;11552;50.786;4.332;2022-07-22T00:14:40;17.50;99.90
22771;DHT22;11552;50.786;4.332;2022-07-22T00:17:06;17.50;99.90
22771;DHT22;11552;50.786;4.332;2022-07-22T00:19:31;17.60;99.90
22771;DHT22;11552;50.786;4.332;2022-07-22T00:21:57;17.60;99.90
22771;DHT22;11552;50.786;4.332;2022-07-22T00:24:22;17.50;99.90
22771;DHT22;11552;50.786;4.332;2022-07-22T00:26:48;17.50;99.90
22771;DHT22;11552;50.786;4.332;2022-07-22T00:29:14;17.60;99.90
22771;DHT22;11552;50.786;4.332;2022-07-22T00:31:39;17.50;99.90
22771;DHT22;11552;50.786;4.332;2022-07-22T00:34:05;17.40;99.90
22771;DHT22;11552;50.786;4.332;2022-07-22T00:36:31;17.30;99.90
22771;DHT22;11552;50.786;4.332;2022-07-22T00:38:56;17.50;99.90
22771;DHT22;11552;50.786;4.332;2022-07-22T00:41:22;17.50;99.90
22771;DHT22;11552;50.786;4.332;2022-07-22T00:43:50;17.30;99.90
22771;DHT22;11552;50.786;4.332;2022-07-22T00:46:15;17.20;99.90
22771;DHT22;11552;50.786;4.332;2022-07-22T00:48:41;17.20;99.90
22771;DHT22;11552;50.786;4.332;2022-07-22T00:51:07;17.10;99.90
22771;DHT22;11552;50.786;4.332;2022-07-22T00:53:33;17.00;99.90
22771;DHT22;11552;50.786;4.332;2022-07-22T00:55:59;17.20;99.90
22771;DHT22;11552;50.786;4.332;2022-07-22T00:58:24;17.10;99.90
22771;DHT22;11552;50.786;4.332;2022-07-22T01:00:50;17.00;99.90
22771;DHT22;11552;50.786;4.332;2022-07-22T01:03:15;16.90;99.90
22771;DHT22;11552;50.786;4.332;2022-07-22T01:05:42;16.90;99.90
22771;DHT22;11552;50.786;4.332;2022-07-22T01:08:08;16.80;99.90
22771;DHT22;11552;50.786;4.332;2022-07-22T01:10:34;16.80;99.90
22771;DHT22;11552;50.786;4.332;2022-07-22T01:12:59;16.90;99.90
22771;DHT22;11552;50.786;4.332;2022-07-22T01:15:25;16.80;99.90
22771;DHT22;11552;50.786;4.332;2022-07-22T01:17:51;16.80;99.90
22771;DHT22;11552;50.786;4.332;2022-07-22T01:20:16;16.70;99.90
22771;DHT22;11552;50.786;4.332;2022-07-22T01:22:42;16.70;99.90
22771;DHT22;11552;50.786;4.332;2022-07-22T01:25:10;16.70;99.90
22771;DHT22;11552;50.786;4.332;2022-07-22T01:27:36;16.70;99.90
22771;DHT22;11552;50.786;4.332;2022-07-22T01:30:04;16.70;99.90
22771;DHT22;11552;50.786;4.332;2022-07-22T01:32:29;16.60;99.90
22771;DHT22;11552;50.786;4.332;2022-07-22T01:34:55;16.50;99.90
22771;DHT22;11552;50.786;4.332;2022-07-22T01:37:21;16.50;99.90
22771;DHT22;11552;50.786;4.332;2022-07-22T01:39:48;16.60;99.90
22771;DHT22;11552;50.786;4.332;2022-07-22T01:42:13;16.60;99.90
22771;DHT22;11552;50.786;4.332;2022-07-22T01:44:39;16.60;99.90
22771;DHT22;11552;50.786;4.332;2022-07-22T01:47:05;16.50;99.90
22771;DHT22;11552;50.786;4.332;2022-07-22T01:49:31;16.50;99.90
22771;DHT22;11552;50.786;4.332;2022-07-22T01:51:56;16.40;99.90
22771;DHT22;11552;50.786;4.332;2022-07-22T01:54:22;16.40;99.90
22771;DHT22;11552;50.786;4.332;2022-07-22T01:56:48;16.50;99.90
22771;DHT22;11552;50.786;4.332;2022-07-22T01:59:14;16.40;99.90
22771;DHT22;11552;50.786;4.332;2022-07-22T02:01:39;16.30;99.90
22771;DHT22;11552;50.786;4.332;2022-07-22T02:04:05;16.30;99.90
22771;DHT22;11552;50.786;4.332;2022-07-22T02:06:31;16.30;99.90
22771;DHT22;11552;50.786;4.332;2022-07-22T02:08:56;16.20;99.90
22771;DHT22;11552;50.786;4.332;2022-07-22T02:11:22;16.20;99.90
22771;DHT22;11552;50.786;4.332;2022-07-22T02:13:48;16.20;99.90
22771;DHT22;11552;50.786;4.332;2022-07-22T02:16:13;16.20;99.90
22771;DHT22;11552;50.786;4.332;2022-07-22T02:18:39;16.30;99.90
22771;DHT22;11552;50.786;4.332;2022-07-22T02:21:05;16.20;99.90
22771;DHT22;11552;50.786;4.332;2022-07-22T02:23:30;16.10;99.90
22771;DHT22;11552;50.786;4.332;2022-07-22T02:25:56;16.10;99.90
22771;DHT22;11552;50.786;4.332;2022-07-22T02:28:22;16.00;99.90
22771;DHT22;11552;50.786;4.332;2022-07-22T02:30:47;16.10;99.90
22771;DHT22;11552;50.786;4.332;2022-07-22T02:33:13;16.20;99.90
22771;DHT22;11552;50.786;4.332;2022-07-22T02:35:40;16.20;99.90
22771;DHT22;11552;50.786;4.332;2022-07-22T02:38:07;16.20;99.90
22771;DHT22;11552;50.786;4.332;2022-07-22T02:40:33;16.20;99.90
22771;DHT22;11552;50.786;4.332;2022-07-22T02:42:59;16.20;99.90
22771;DHT22;11552;50.786;4.332;2022-07-22T02:45:24;16.20;99.90
22771;DHT22;11552;50.786;4.332;2022-07-22T02:47:53;16.10;99.90
22771;DHT22;11552;50.786;4.332;2022-07-22T02:50:19;16.10;99.90
22771;DHT22;11552;50.786;4.332;2022-07-22T02:52:45;16.00;99.90
22771;DHT22;11552;50.786;4.332;2022-07-22T02:55:11;16.10;99.90
22771;DHT22;11552;50.786;4.332;2022-07-22T03:02:40;16.00;99.90
22771;DHT22;11552;50.786;4.332;2022-07-22T03:05:07;16.00;99.90
22771;DHT22;11552;50.786;4.332;2022-07-22T03:07:32;15.90;99.90
22771;DHT22;11552;50.786;4.332;2022-07-22T03:09:58;15.70;99.90
22771;DHT22;11552;50.786;4.332;2022-07-22T03:12:24;15.80;99.90
22771;DHT22;11552;50.786;4.332;2022-07-22T03:14:50;15.70;99.90
22771;DHT22;11552;50.786;4.332;2022-07-22T03:17:16;15.80;99.90
22771;DHT22;11552;50.786;4.332;2022-07-22T03:19:41;15.80;99.90
22771;DHT22;11552;50.786;4.332;2022-07-22T03:22:07;15.70;99.90
22771;DHT22;11552;50.786;4.332;2022-07-22T03:24:33;15.80;99.90
22771;DHT22;11552;50.786;4.332;2022-07-22T03:26:59;15.70;99.90
22771;DHT22;11552;50.786;4.332;2022-07-22T03:29:25;15.80;99.90
22771;DHT22;11552;50.786;4.332;2022-07-22T03:31:50;15.80;99.90
22771;DHT22;11552;50.786;4.332;2022-07-22T03:34:16;15.80;99.90
22771;DHT22;11552;50.786;4.332;2022-07-22T03:36:42;15.80;99.90
22771;DHT22;11552;50.786;4.332;2022-07-22T03:39:07;15.80;99.90
22771;DHT22;11552;50.786;4.332;2022-07-22T03:41:33;15.80;99.90
22771;DHT22;11552;50.786;4.332;2022-07-22T03:43:58;15.80;99.90
22771;DHT22;11552;50.786;4.332;2022-07-22T03:46:24;15.70;99.90
22771;DHT22;11552;50.786;4.332;2022-07-22T03:48:50;15.80;99.90
22771;DHT22;11552;50.786;4.332;2022-07-22T03:51:15;15.90;99.90
22771;DHT22;11552;50.786;4.332;2022-07-22T03:53:41;15.90;99.90
22771;DHT22;11552;50.786;4.332;2022-07-22T03:56:07;15.70;99.90
22771;DHT22;11552;50.786;4.332;2022-07-22T03:58:32;15.70;99.90
22771;DHT22;11552;50.786;4.332;2022-07-22T04:00:58;15.80;99.90
22771;DHT22;11552;50.786;4.332;2022-07-22T04:03:24;15.70;99.90
22771;DHT22;11552;50.786;4.332;2022-07-22T04:05:49;15.70;99.90
22771;DHT22;11552;50.786;4.332;2022-07-22T04:08:17;15.70;99.90
22771;DHT22;11552;50.786;4.332;2022-07-22T04:10:43;15.60;99.90
22771;DHT22;11552;50.786;4.332;2022-07-22T04:13:09;15.60;99.90
22771;DHT22;11552;50.786;4.332;2022-07-22T04:15:35;15.70;99.90
22771;DHT22;11552;50.786;4.332;2022-07-22T04:18:00;15.70;99.90
22771;DHT22;11552;50.786;4.332;2022-07-22T04:20:27;15.70;99.90
22771;DHT22;11552;50.786;4.332;2022-07-22T04:22:52;15.80;99.90
22771;DHT22;11552;50.786;4.332;2022-07-22T04:25:18;15.90;99.90
22771;DHT22;11552;50.786;4.332;2022-07-22T04:27:44;16.00;99.90
22771;DHT22;11552;50.786;4.332;2022-07-22T04:30:10;16.10;99.90
22771;DHT22;11552;50.786;4.332;2022-07-22T04:32:36;16.20;99.90
22771;DHT22;11552;50.786;4.332;2022-07-22T04:35:02;16.30;99.90
22771;DHT22;11552;50.786;4.332;2022-07-22T04:37:27;16.20;99.90
22771;DHT22;11552;50.786;4.332;2022-07-22T04:39:53;16.20;99.90
22771;DHT22;11552;50.786;4.332;2022-07-22T04:42:18;16.10;99.90
22771;DHT22;11552;50.786;4.332;2022-07-22T04:44:44;16.30;99.90
22771;DHT22;11552;50.786;4.332;2022-07-22T04:47:11;16.50;99.90
22771;DHT22;11552;50.786;4.332;2022-07-22T04:49:36;16.60;99.90
22771;DHT22;11552;50.786;4.332;2022-07-22T04:52:02;16.70;99.90
22771;DHT22;11552;50.786;4.332;2022-07-22T04:54:28;16.80;99.90
22771;DHT22;11552;50.786;4.332;2022-07-22T04:56:54;16.90;99.90
22771;DHT22;11552;50.786;4.332;2022-07-22T04:59:19;16.90;99.90
22771;DHT22;11552;50.786;4.332;2022-07-22T05:01:45;16.90;99.90
22771;DHT22;11552;50.786;4.332;2022-07-22T05:04:10;17.10;99.90
22771;DHT22;11552;50.786;4.332;2022-07-22T05:06:36;17.20;99.90
22771;DHT22;11552;50.786;4.332;2022-07-22T05:09:02;17.20;99.90
22771;DHT22;11552;50.786;4.332;2022-07-22T05:11:28;17.30;99.90
22771;DHT22;11552;50.786;4.332;2022-07-22T05:13:53;17.50;99.90
22771;DHT22;11552;50.786;4.332;2022-07-22T05:16:19;17.40;99.90
22771;DHT22;11552;50.786;4.332;2022-07-22T05:18:45;17.40;99.90
22771;DHT22;11552;50.786;4.332;2022-07-22T05:21:10;17.50;99.90
22771;DHT22;11552;50.786;4.332;2022-07-22T05:23:36;17.20;99.90
22771;DHT22;11552;50.786;4.332;2022-07-22T05:26:03;17.10;99.90
22771;DHT22;11552;50.786;4.332;2022-07-22T05:28:29;17.10;99.90
22771;DHT22;11552;50.786;4.332;2022-07-22T05:30:54;17.30;99.90
22771;DHT22;11552;50.786;4.332;2022-07-22T05:33:20;17.40;99.90
22771;DHT22;11552;50.786;4.332;2022-07-22T05:35:46;17.50;99.90
22771;DHT22;11552;50.786;4.332;2022-07-22T05:38:11;17.60;99.90
22771;DHT22;11552;50.786;4.332;2022-07-22T05:40:37;17.60;99.90
22771;DHT22;11552;50.786;4.332;2022-07-22T05:43:03;17.70;99.90
22771;DHT22;11552;50.786;4.332;2022-07-22T05:45:29;17.80;99.90
22771;DHT22;11552;50.786;4.332;2022-07-22T05:47:54;17.80;99.90
22771;DHT22;11552;50.786;4.332;2022-07-22T05:50:20;17.80;99.90
22771;DHT22;11552;50.786;4.332;2022-07-22T05:52:45;18.00;99.90
22771;DHT22;11552;50.786;4.332;2022-07-22T05:55:11;18.10;99.90
22771;DHT22;11552;50.786;4.332;2022-07-22T05:57:37;18.00;99.90
22771;DHT22;11552;50.786;4.332;2022-07-22T06:00:04;18.10;99.90
22771;DHT22;11552;50.786;4.332;2022-07-22T06:02:29;18.20;99.90
22771;DHT22;11552;50.786;4.332;2022-07-22T06:04:55;18.10;99.90
22771;DHT22;11552;50.786;4.332;2022-07-22T06:07:21;18.20;99.90
22771;DHT22;11552;50.786;4.332;2022-07-22T06:14:41;18.10;99.90
22771;DHT22;11552;50.786;4.332;2022-07-22T06:17:09;18.10;99.90
22771;DHT22;11552;50.786;4.332;2022-07-22T06:19:35;18.10;99.90
22771;DHT22;11552;50.786;4.332;2022-07-22T06:22:00;18.30;99.90
22771;DHT22;11552;50.786;4.332;2022-07-22T06:24:26;18.30;99.90
22771;DHT22;11552;50.786;4.332;2022-07-22T06:26:52;18.40;99.90
22771;DHT22;11552;50.786;4.332;2022-07-22T06:29:18;18.30;99.90
22771;DHT22;11552;50.786;4.332;2022-07-22T06:31:43;18.50;99.90
22771;DHT22;11552;50.786;4.332;2022-07-22T06:34:09;18.80;99.90
22771;DHT22;11552;50.786;4.332;2022-07-22T06:36:34;19.10;99.90
22771;DHT22;11552;50.786;4.332;2022-07-22T06:39:00;18.70;99.90
22771;DHT22;11552;50.786;4.332;2022-07-22T06:41:26;18.80;99.90
22771;DHT22;11552;50.786;4.332;2022-07-22T06:43:52;19.00;99.90
22771;DHT22;11552;50.786;4.332;2022-07-22T06:46:18;19.30;99.90
22771;DHT22;11552;50.786;4.332;2022-07-22T06:48:44;19.50;99.90
22771;DHT22;11552;50.786;4.332;2022-07-22T06:51:10;19.60;99.90
22771;DHT22;11552;50.786;4.332;2022-07-22T06:53:36;19.80;99.90
22771;DHT22;11552;50.786;4.332;2022-07-22T06:56:01;20.30;99.90
22771;DHT22;11552;50.786;4.332;2022-07-22T06:58:27;20.50;99.90
22771;DHT22;11552;50.786;4.332;2022-07-22T07:00:53;19.90;99.90
22771;DHT22;11552;50.786;4.332;2022-07-22T07:03:18;19.60;99.90
22771;DHT22;11552;50.786;4.332;2022-07-22T07:05:44;19.50;99.90
22771;DHT22;11552;50.786;4.332;2022-07-22T07:08:10;19.60;99.90
22771;DHT22;11552;50.786;4.332;2022-07-22T07:10:35;20.10;99.90
22771;DHT22;11552;50.786;4.332;2022-07-22T07:13:01;20.60;99.90
22771;DHT22;11552;50.786;4.332;2022-07-22T07:15:27;21.20;99.90
22771;DHT22;11552;50.786;4.332;2022-07-22T07:17:54;21.50;99.90
22771;DHT22;11552;50.786;4.332;2022-07-22T07:20:20;21.70;99.90
22771;DHT22;11552;50.786;4.332;2022-07-22T07:22:46;21.90;99.90
22771;DHT22;11552;50.786;4.332;2022-07-22T07:25:11;22.20;99.90
22771;DHT22;11552;50.786;4.332;2022-07-22T07:27:37;22.20;99.90
22771;DHT22;11552;50.786;4.332;2022-07-22T07:30:04;21.70;99.90
22771;DHT22;11552;50.786;4.332;2022-07-22T07:32:30;21.10;99.90
22771;DHT22;11552;50.786;4.332;2022-07-22T07:34:56;21.20;99.90
22771;DHT22;11552;50.786;4.332;2022-07-22T07:37:21;21.30;99.90
22771;DHT22;11552;50.786;4.332;2022-07-22T07:39:47;21.10;99.90
22771;DHT22;11552;50.786;4.332;2022-07-22T07:42:13;21.40;99.90
22771;DHT22;11552;50.786;4.332;2022-07-22T07:44:38;21.40;99.90
22771;DHT22;11552;50.786;4.332;2022-07-22T07:47:04;21.20;99.90
22771;DHT22;11552;50.786;4.332;2022-07-22T07:49:30;21.20;99.90
22771;DHT22;11552;50.786;4.332;2022-07-22T07:51:55;21.50;99.90
22771;DHT22;11552;50.786;4.332;2022-07-22T07:54:21;21.70;99.90
22771;DHT22;11552;50.786;4.332;2022-07-22T07:56:47;21.90;99.90
22771;DHT22;11552;50.786;4.332;2022-07-22T07:59:13;22.10;99.90
22771;DHT22;11552;50.786;4.332;2022-07-22T08:01:39;22.20;99.90
22771;DHT22;11552;50.786;4.332;2022-07-22T08:04:04;21.90;99.90
22771;DHT22;11552;50.786;4.332;2022-07-22T08:06:30;22.00;99.90
22771;DHT22;11552;50.786;4.332;2022-07-22T08:08:56;22.10;99.90
22771;DHT22;11552;50.786;4.332;2022-07-22T08:11:21;22.30;99.90
22771;DHT22;11552;50.786;4.332;2022-07-22T08:13:48;22.60;99.90
22771;DHT22;11552;50.786;4.332;2022-07-22T08:16:14;22.80;99.90
22771;DHT22;11552;50.786;4.332;2022-07-22T08:18:40;23.00;99.90
22771;DHT22;11552;50.786;4.332;2022-07-22T08:21:06;23.20;99.90
22771;DHT22;11552;50.786;4.332;2022-07-22T08:23:32;23.10;99.90
22771;DHT22;11552;50.786;4.332;2022-07-22T08:25:59;22.60;99.90
22771;DHT22;11552;50.786;4.332;2022-07-22T08:28:25;21.90;99.90
22771;DHT22;11552;50.786;4.332;2022-07-22T08:30:51;21.80;99.90
22771;DHT22;11552;50.786;4.332;2022-07-22T08:33:17;22.60;99.90
22771;DHT22;11552;50.786;4.332;2022-07-22T08:35:42;23.30;99.90
22771;DHT22;11552;50.786;4.332;2022-07-22T08:38:08;23.90;99.90
22771;DHT22;11552;50.786;4.332;2022-07-22T08:40:34;24.20;99.90
22771;DHT22;11552;50.786;4.332;2022-07-22T08:43:00;23.50;99.90
22771;DHT22;11552;50.786;4.332;2022-07-22T08:45:31;23.40;99.90
22771;DHT22;11552;50.786;4.332;2022-07-22T08:47:57;24.40;99.90
22771;DHT22;11552;50.786;4.332;2022-07-22T08:50:25;25.60;99.90
22771;DHT22;11552;50.786;4.332;2022-07-22T08:52:51;26.50;99.90
22771;DHT22;11552;50.786;4.332;2022-07-22T08:55:17;28.10;97.60
22771;DHT22;11552;50.786;4.332;2022-07-22T08:57:47;29.00;94.40
22771;DHT22;11552;50.786;4.332;2022-07-22T09:00:15;28.90;92.00
22771;DHT22;11552;50.786;4.332;2022-07-22T09:02:42;26.90;95.00
22771;DHT22;11552;50.786;4.332;2022-07-22T09:05:09;26.40;95.60
22771;DHT22;11552;50.786;4.332;2022-07-22T09:07:37;25.70;97.00
22771;DHT22;11552;50.786;4.332;2022-07-22T09:10:06;24.90;98.90
22771;DHT22;11552;50.786;4.332;2022-07-22T09:12:33;25.50;99.00
22771;DHT22;11552;50.786;4.332;2022-07-22T09:15:02;26.30;97.40
22771;DHT22;11552;50.786;4.332;2022-07-22T09:17:34;26.90;96.20
22771;DHT22;11552;50.786;4.332;2022-07-22T09:22:52;27.50;94.10
22771;DHT22;11552;50.786;4.332;2022-07-22T09:27:47;29.50;89.60
22771;DHT22;11552;50.786;4.332;2022-07-22T09:30:27;28.10;90.70
22771;DHT22;11552;50.786;4.332;2022-07-22T09:32:53;27.60;91.70
22771;DHT22;11552;50.786;4.332;2022-07-22T09:35:23;26.60;93.50
22771;DHT22;11552;50.786;4.332;2022-07-22T09:40:20;26.60;95.30
22771;DHT22;11552;50.786;4.332;2022-07-22T09:42:54;27.40;93.50
22771;DHT22;11552;50.786;4.332;2022-07-22T09:45:21;28.90;91.60
22771;DHT22;11552;50.786;4.332;2022-07-22T09:47:49;29.50;89.20
22771;DHT22;11552;50.786;4.332;2022-07-22T09:50:29;29.00;89.80
22771;DHT22;11552;50.786;4.332;2022-07-22T09:52:57;29.00;88.00
22771;DHT22;11552;50.786;4.332;2022-07-22T09:55:25;26.50;92.20
22771;DHT22;11552;50.786;4.332;2022-07-22T09:57:52;26.00;92.70
22771;DHT22;11552;50.786;4.332;2022-07-22T10:00:20;24.70;96.00
22771;DHT22;11552;50.786;4.332;2022-07-22T10:02:58;25.00;96.50
22771;DHT22;11552;50.786;4.332;2022-07-22T10:05:26;24.40;97.50
22771;DHT22;11552;50.786;4.332;2022-07-22T10:07:53;24.40;98.70
22771;DHT22;11552;50.786;4.332;2022-07-22T10:10:21;25.20;97.40
22771;DHT22;11552;50.786;4.332;2022-07-22T10:12:48;26.20;95.70
22771;DHT22;11552;50.786;4.332;2022-07-22T10:15:15;26.80;94.10
22771;DHT22;11552;50.786;4.332;2022-07-22T10:17:43;26.60;93.60
22771;DHT22;11552;50.786;4.332;2022-07-22T10:20:10;25.80;95.20
22771;DHT22;11552;50.786;4.332;2022-07-22T10:25:07;28.00;91.40
22771;DHT22;11552;50.786;4.332;2022-07-22T10:27:44;28.70;89.70
22771;DHT22;11552;50.786;4.332;2022-07-22T10:30:10;29.40;87.00
22771;DHT22;11552;50.786;4.332;2022-07-22T10:32:36;30.40;83.50
22771;DHT22;11552;50.786;4.332;2022-07-22T10:40:10;30.50;79.40
22771;DHT22;11552;50.786;4.332;2022-07-22T10:43:02;27.10;86.60
22771;DHT22;11552;50.786;4.332;2022-07-22T10:45:38;24.40;95.20
22771;DHT22;11552;50.786;4.332;2022-07-22T10:48:07;24.30;97.50
22771;DHT22;11552;50.786;4.332;2022-07-22T10:53:02;25.30;95.00
22771;DHT22;11552;50.786;4.332;2022-07-22T10:55:28;24.50;97.20
22771;DHT22;11552;50.786;4.332;2022-07-22T10:57:54;24.40;97.80
22771;DHT22;11552;50.786;4.332;2022-07-22T11:00:20;25.00;96.70
22771;DHT22;11552;50.786;4.332;2022-07-22T11:02:45;25.30;96.60
22771;DHT22;11552;50.786;4.332;2022-07-22T11:05:11;25.70;95.90
22771;DHT22;11552;50.786;4.332;2022-07-22T11:07:44;25.90;95.70
22771;DHT22;11552;50.786;4.332;2022-07-22T11:10:16;26.10;94.80
22771;DHT22;11552;50.786;4.332;2022-07-22T11:12:42;26.50;94.70
22771;DHT22;11552;50.786;4.332;2022-07-22T11:15:08;26.60;93.90
22771;DHT22;11552;50.786;4.332;2022-07-22T11:17:35;26.50;92.60
22771;DHT22;11552;50.786;4.332;2022-07-22T11:20:06;25.90;94.10
22771;DHT22;11552;50.786;4.332;2022-07-22T11:22:33;25.00;96.50
22771;DHT22;11552;50.786;4.332;2022-07-22T11:25:04;25.50;96.00
22771;DHT22;11552;50.786;4.332;2022-07-22T11:27:30;26.00;95.10
22771;DHT22;11552;50.786;4.332;2022-07-22T11:29:57;26.50;94.60
22771;DHT22;11552;50.786;4.332;2022-07-22T11:32:25;26.50;93.80
22771;DHT22;11552;50.786;4.332;2022-07-22T11:34:53;25.50;95.20
22771;DHT22;11552;50.786;4.332;2022-07-22T11:37:21;25.80;94.90
22771;DHT22;11552;50.786;4.332;2022-07-22T11:39:50;26.40;93.00
22771;DHT22;11552;50.786;4.332;2022-07-22T11:42:16;26.60;93.60
22771;DHT22;11552;50.786;4.332;2022-07-22T11:44:41;25.50;94.50
22771;DHT22;11552;50.786;4.332;2022-07-22T11:47:08;25.40;96.40
22771;DHT22;11552;50.786;4.332;2022-07-22T11:49:36;26.10;95.00
22771;DHT22;11552;50.786;4.332;2022-07-22T11:52:07;26.30;93.90
22771;DHT22;11552;50.786;4.332;2022-07-22T11:54:35;26.20;94.30
22771;DHT22;11552;50.786;4.332;2022-07-22T11:57:02;26.40;94.10
22771;DHT22;11552;50.786;4.332;2022-07-22T11:59:27;26.70;93.80
22771;DHT22;11552;50.786;4.332;2022-07-22T12:01:53;26.50;94.10
22771;DHT22;11552;50.786;4.332;2022-07-22T12:04:24;25.80;94.00
22771;DHT22;11552;50.786;4.332;2022-07-22T12:06:50;25.90;94.40
22771;DHT22;11552;50.786;4.332;2022-07-22T12:09:22;26.00;94.80
22771;DHT22;11552;50.786;4.332;2022-07-22T12:11:50;26.90;94.30
22771;DHT22;11552;50.786;4.332;2022-07-22T12:14:18;27.10;93.90
22771;DHT22;11552;50.786;4.332;2022-07-22T12:17:02;27.10;93.20
22771;DHT22;11552;50.786;4.332;2022-07-22T12:19:31;27.10;93.30
22771;DHT22;11552;50.786;4.332;2022-07-22T12:22:02;27.50;92.40
22771;DHT22;11552;50.786;4.332;2022-07-22T12:24:35;27.90;92.30
22771;DHT22;11552;50.786;4.332;2022-07-22T12:37:21;28.00;91.80
22771;DHT22;11552;50.786;4.332;2022-07-22T12:39:55;28.10;91.50
22771;DHT22;11552;50.786;4.332;2022-07-22T12:42:21;28.20;91.40
22771;DHT22;11552;50.786;4.332;2022-07-22T12:45:06;28.10;91.40
22771;DHT22;11552;50.786;4.332;2022-07-22T12:47:44;28.20;90.80
22771;DHT22;11552;50.786;4.332;2022-07-22T12:52:57;28.10;91.40
22771;DHT22;11552;50.786;4.332;2022-07-22T12:55:24;28.20;91.30
22771;DHT22;11552;50.786;4.332;2022-07-22T12:57:50;28.40;90.80
22771;DHT22;11552;50.786;4.332;2022-07-22T13:00:18;28.60;90.80
22771;DHT22;11552;50.786;4.332;2022-07-22T13:02:43;28.90;89.50
22771;DHT22;11552;50.786;4.332;2022-07-22T13:05:09;28.70;87.70
22771;DHT22;11552;50.786;4.332;2022-07-22T13:07:35;28.90;88.20
22771;DHT22;11552;50.786;4.332;2022-07-22T13:10:00;28.90;86.90
22771;DHT22;11552;50.786;4.332;2022-07-22T13:12:26;28.90;87.00
22771;DHT22;11552;50.786;4.332;2022-07-22T13:14:52;28.80;87.20
22771;DHT22;11552;50.786;4.332;2022-07-22T13:17:17;27.90;88.70
22771;DHT22;11552;50.786;4.332;2022-07-22T13:19:44;26.30;92.50
22771;DHT22;11552;50.786;4.332;2022-07-22T13:22:10;26.50;92.50
22771;DHT22;11552;50.786;4.332;2022-07-22T13:24:36;27.00;91.50
22771;DHT22;11552;50.786;4.332;2022-07-22T13:27:02;27.10;91.70
22771;DHT22;11552;50.786;4.332;2022-07-22T13:29:28;27.60;92.00
22771;DHT22;11552;50.786;4.332;2022-07-22T13:31:54;27.50;91.10
22771;DHT22;11552;50.786;4.332;2022-07-22T13:34:19;26.70;91.90
22771;DHT22;11552;50.786;4.332;2022-07-22T13:36:45;26.20;92.50
22771;DHT22;11552;50.786;4.332;2022-07-22T13:39:10;26.50;92.50
22771;DHT22;11552;50.786;4.332;2022-07-22T13:41:36;26.50;92.80
22771;DHT22;11552;50.786;4.332;2022-07-22T13:44:02;26.90;92.40
22771;DHT22;11552;50.786;4.332;2022-07-22T13:46:27;26.80;92.60
22771;DHT22;11552;50.786;4.332;2022-07-22T13:48:54;26.80;92.70
22771;DHT22;11552;50.786;4.332;2022-07-22T13:51:20;26.20;93.10
22771;DHT22;11552;50.786;4.332;2022-07-22T13:53:45;26.40;93.10
22771;DHT22;11552;50.786;4.332;2022-07-22T13:56:11;25.70;93.70
22771;DHT22;11552;50.786;4.332;2022-07-22T13:58:38;25.30;94.40
22771;DHT22;11552;50.786;4.332;2022-07-22T14:01:07;25.50;94.70
22771;DHT22;11552;50.786;4.332;2022-07-22T14:03:33;25.90;94.80
22771;DHT22;11552;50.786;4.332;2022-07-22T14:05:59;25.90;94.70
22771;DHT22;11552;50.786;4.332;2022-07-22T14:08:24;25.60;94.80
22771;DHT22;11552;50.786;4.332;2022-07-22T14:10:50;25.00;96.70
22771;DHT22;11552;50.786;4.332;2022-07-22T14:13:16;24.90;97.00
22771;DHT22;11552;50.786;4.332;2022-07-22T14:15:42;25.00;96.40
22771;DHT22;11552;50.786;4.332;2022-07-22T14:18:07;25.40;96.30
22771;DHT22;11552;50.786;4.332;2022-07-22T14:20:34;25.20;97.20
22771;DHT22;11552;50.786;4.332;2022-07-22T14:23:00;25.20;97.00
22771;DHT22;11552;50.786;4.332;2022-07-22T14:25:27;24.80;98.40
22771;DHT22;11552;50.786;4.332;2022-07-22T14:27:53;25.20;97.50
22771;DHT22;11552;50.786;4.332;2022-07-22T14:30:18;25.00;97.50
22771;DHT22;11552;50.786;4.332;2022-07-22T14:32:44;25.10;97.90
22771;DHT22;11552;50.786;4.332;2022-07-22T14:35:10;24.90;98.60
22771;DHT22;11552;50.786;4.332;2022-07-22T14:37:35;25.10;97.70
22771;DHT22;11552;50.786;4.332;2022-07-22T14:40:02;25.30;97.00
22771;DHT22;11552;50.786;4.332;2022-07-22T14:42:27;25.30;97.20
22771;DHT22;11552;50.786;4.332;2022-07-22T14:44:53;25.30;97.50
22771;DHT22;11552;50.786;4.332;2022-07-22T14:47:19;25.40;97.30
22771;DHT22;11552;50.786;4.332;2022-07-22T14:49:44;25.50;97.60
22771;DHT22;11552;50.786;4.332;2022-07-22T14:52:10;24.80;98.50
22771;DHT22;11552;50.786;4.332;2022-07-22T14:54:35;25.30;98.10
22771;DHT22;11552;50.786;4.332;2022-07-22T14:57:01;25.40;98.20
22771;DHT22;11552;50.786;4.332;2022-07-22T14:59:28;25.00;98.30
22771;DHT22;11552;50.786;4.332;2022-07-22T15:01:54;24.40;99.90
22771;DHT22;11552;50.786;4.332;2022-07-22T15:04:20;24.20;99.90
22771;DHT22;11552;50.786;4.332;2022-07-22T15:06:46;23.90;99.90
22771;DHT22;11552;50.786;4.332;2022-07-22T15:09:12;24.10;99.90
22771;DHT22;11552;50.786;4.332;2022-07-22T15:11:37;24.40;99.90
22771;DHT22;11552;50.786;4.332;2022-07-22T15:14:03;24.60;99.90
22771;DHT22;11552;50.786;4.332;2022-07-22T15:16:29;24.60;99.90
22771;DHT22;11552;50.786;4.332;2022-07-22T15:18:54;24.00;99.90
22771;DHT22;11552;50.786;4.332;2022-07-22T15:21:20;24.10;99.90
22771;DHT22;11552;50.786;4.332;2022-07-22T15:23:47;24.20;99.90
22771;DHT22;11552;50.786;4.332;2022-07-22T15:26:14;23.60;99.90
22771;DHT22;11552;50.786;4.332;2022-07-22T15:28:39;23.80;99.90
22771;DHT22;11552;50.786;4.332;2022-07-22T15:31:06;24.10;99.90
22771;DHT22;11552;50.786;4.332;2022-07-22T15:33:32;24.50;99.90
22771;DHT22;11552;50.786;4.332;2022-07-22T15:35:58;24.70;99.90
22771;DHT22;11552;50.786;4.332;2022-07-22T15:38:23;24.80;99.90
22771;DHT22;11552;50.786;4.332;2022-07-22T15:40:49;25.20;99.90
22771;DHT22;11552;50.786;4.332;2022-07-22T15:43:15;25.50;99.90
22771;DHT22;11552;50.786;4.332;2022-07-22T15:45:41;25.50;99.90
22771;DHT22;11552;50.786;4.332;2022-07-22T15:48:07;24.70;99.90
22771;DHT22;11552;50.786;4.332;2022-07-22T15:50:33;24.50;99.90
22771;DHT22;11552;50.786;4.332;2022-07-22T15:52:59;24.50;99.90
22771;DHT22;11552;50.786;4.332;2022-07-22T15:55:27;24.50;99.90
22771;DHT22;11552;50.786;4.332;2022-07-22T15:57:55;24.40;99.90
22771;DHT22;11552;50.786;4.332;2022-07-22T16:00:39;23.60;99.90
22771;DHT22;11552;50.786;4.332;2022-07-22T16:03:05;23.60;99.90
22771;DHT22;11552;50.786;4.332;2022-07-22T16:05:30;23.90;99.90